Check out our new BloomSky Weather System.

Active alerts

Galveston, TX
  Details for Galveston, TX Coastal Flood Advisory  +3 additional alerts
Fort Bend, TX
  Details for Fort Bend, TX Flash Flood Watch


Thunder radar  blitzortung!


Rain radar more information rain snow radar


Visit our other weather sites:

Template documentation
and downloads

And another site



Weather Underground History page Text

Daily Summary for February 20, 2017 Units:  English    Metric   Both
« Previous Day
Next Day »
Daily Weekly Monthly Yearly Custom
  High: Low: Average:
Temperature: TemperatureF °F 59.0 °F 62.6 °F
Dew Point: DewpointF °F 59.0 °F 62 °F
Humidity: Humidity % 87 % 98 %
Wind Speed: WindSpeedMPH mph 0.0 mph 1.9 mph
Wind Gust: WindSpeedGustMPH mph - -
Wind:- - South
Pressure: PressureIn in 29.86 in -
Precipitation: 1.98 in    
Historical Graphs
 
 
Tabular Data for February 20, 2017
Time Temperature Dew Point Pressure Wind Wind Speed Wind Gust Humidity Rainfall Rate (Hourly)
TemperatureF °F DewpointF °F PressureIn in Calm     Humidity % HourlyPrecipIn in
00:02 70.3 °F 69.8 °F 29.89 in ESE 4.0 mph 9.0 mph 98 % 0.00 in
00:07 70.3 °F 69.8 °F 29.89 in ESE 3.0 mph 9.0 mph 98 % 0.00 in
00:12 70.3 °F 69.8 °F 29.89 in Calm   7.0 mph 98 % 0.00 in
00:17 70.3 °F 69.8 °F 29.89 in SE 4.0 mph 7.0 mph 98 % 0.00 in
00:22 70.3 °F 69.8 °F 29.89 in SE 2.0 mph 7.0 mph 98 % 0.00 in
00:27 70.3 °F 69.8 °F 29.89 in South 2.0 mph 6.0 mph 98 % 0.00 in
00:32 70.3 °F 69.8 °F 29.89 in SE 2.0 mph 5.0 mph 98 % 0.00 in
00:37 70.3 °F 69.8 °F 29.89 in ESE 2.0 mph 5.0 mph 98 % 0.00 in
00:42 70.3 °F 69.8 °F 29.89 in ESE 4.0 mph 6.0 mph 98 % 0.00 in
00:47 70.3 °F 69.8 °F 29.89 in ESE 4.0 mph 6.0 mph 98 % 0.00 in
00:52 70.3 °F 69.8 °F 29.88 in ESE 3.0 mph 7.0 mph 98 % 0.00 in
00:57 70.3 °F 69.8 °F 29.88 in SE 3.0 mph 7.0 mph 98 % 0.00 in
01:02 70.3 °F 69.8 °F 29.87 in SE 6.0 mph 9.0 mph 98 % 0.00 in
01:07 70.3 °F 69.8 °F 29.87 in SE 4.0 mph 9.0 mph 98 % 0.00 in
01:12 70.3 °F 69.8 °F 29.87 in SSE 2.0 mph 9.0 mph 98 % 0.00 in
01:17 70.3 °F 69.8 °F 29.87 in ESE 1.0 mph 8.0 mph 98 % 0.00 in
01:22 70.2 °F 69.6 °F 29.87 in SE 5.0 mph 8.0 mph 98 % 0.00 in
01:27 70.2 °F 69.6 °F 29.87 in ESE 3.0 mph 7.0 mph 98 % 0.00 in
01:32 70.2 °F 69.6 °F 29.86 in ENE 2.0 mph 7.0 mph 98 % 0.00 in
01:37 70.2 °F 69.6 °F 29.86 in SSE 3.0 mph 7.0 mph 98 % 0.00 in
01:43 70.0 °F 69.4 °F 29.87 in East 9.0 mph 11.0 mph 98 % 0.00 in
01:48 70.2 °F 69.6 °F 29.87 in SE 7.0 mph 11.0 mph 98 % 0.00 in
01:53 70.2 °F 69.6 °F 29.88 in SE 3.0 mph 11.0 mph 98 % 0.00 in
01:58 70.2 °F 69.6 °F 29.88 in SSE 4.0 mph 9.0 mph 98 % 0.00 in
02:03 70.2 °F 69.3 °F 29.88 in SSE 6.0 mph 9.0 mph 97 % 0.00 in
02:08 70.3 °F 69.4 °F 29.89 in SE 4.0 mph 10.0 mph 97 % 0.00 in
02:13 70.5 °F 69.6 °F 29.89 in South 3.0 mph 10.0 mph 97 % 0.00 in
02:18 70.5 °F 69.3 °F 29.90 in SSE 5.0 mph 10.0 mph 96 % 0.00 in
02:23 70.7 °F 69.4 °F 29.90 in SSW 2.0 mph 8.0 mph 96 % 0.00 in
02:28 70.7 °F 69.4 °F 29.89 in SSE 2.0 mph 7.0 mph 96 % 0.00 in
02:33 70.9 °F 69.4 °F 29.89 in SE 2.0 mph 7.0 mph 95 % 0.00 in
02:38 70.9 °F 69.4 °F 29.89 in SSE 2.0 mph 7.0 mph 95 % 0.00 in
02:43 71.1 °F 69.6 °F 29.89 in SE 4.0 mph 7.0 mph 95 % 0.00 in
02:48 71.1 °F 69.6 °F 29.88 in ENE 6.0 mph 6.0 mph 95 % 0.00 in
02:53 71.1 °F 69.3 °F 29.88 in SSE 4.0 mph 6.0 mph 94 % 0.00 in
02:58 71.2 °F 69.4 °F 29.89 in SE 4.0 mph 10.0 mph 94 % 0.00 in
03:03 71.2 °F 69.4 °F 29.89 in SW 2.0 mph 10.0 mph 94 % 0.00 in
03:08 71.2 °F 69.4 °F 29.89 in SSE 3.0 mph 10.0 mph 94 % 0.00 in
03:13 71.2 °F 69.4 °F 29.89 in SE 3.0 mph 7.0 mph 94 % 0.00 in
03:18 71.2 °F 69.1 °F 29.88 in SE 3.0 mph 8.0 mph 93 % 0.00 in
03:23 71.2 °F 69.1 °F 29.88 in SE 6.0 mph 9.0 mph 93 % 0.00 in
03:28 71.2 °F 69.1 °F 29.89 in East 4.0 mph 9.0 mph 93 % 0.00 in
03:33 71.2 °F 69.1 °F 29.89 in ESE 3.0 mph 9.0 mph 93 % 0.00 in
03:38 71.2 °F 69.1 °F 29.89 in ESE 4.0 mph 7.0 mph 93 % 0.00 in
03:43 71.2 °F 69.1 °F 29.89 in SSE 2.0 mph 7.0 mph 93 % 0.00 in
03:48 71.2 °F 69.1 °F 29.89 in ESE 2.0 mph 6.0 mph 93 % 0.00 in
03:54 71.2 °F 69.1 °F 29.89 in SE 3.0 mph 6.0 mph 93 % 0.00 in
03:59 71.2 °F 69.1 °F 29.88 in SSE 2.0 mph 6.0 mph 93 % 0.00 in
04:04 71.2 °F 69.1 °F 29.88 in East 2.0 mph 6.0 mph 93 % 0.00 in
04:09 71.2 °F 69.1 °F 29.88 in ESE 3.0 mph 6.0 mph 93 % 0.00 in
04:14 71.2 °F 69.1 °F 29.87 in SE 1.0 mph 5.0 mph 93 % 0.00 in
04:19 71.2 °F 69.1 °F 29.87 in Calm   5.0 mph 93 % 0.00 in
04:24 71.2 °F 69.1 °F 29.87 in Calm   4.0 mph 93 % 0.00 in
04:29 71.2 °F 69.1 °F 29.87 in Calm   3.0 mph 93 % 0.00 in
04:34 71.1 °F 68.9 °F 29.87 in Calm   3.0 mph 93 % 0.00 in
04:39 71.1 °F 68.9 °F 29.88 in NW 7.0 mph 7.0 mph 93 % 0.00 in
04:44 67.6 °F 63.7 °F 29.88 in NW 9.0 mph 9.0 mph 87 % 0.00 in
04:49 65.8 °F 62.8 °F 29.89 in NW 3.0 mph 11.0 mph 90 % 0.00 in
04:54 65.1 °F 62.4 °F 29.89 in NW 4.0 mph 11.0 mph 91 % 0.00 in
04:59 64.8 °F 62.4 °F 29.89 in NW 3.0 mph 11.0 mph 92 % 0.00 in
05:04 64.4 °F 62.4 °F 29.89 in NNW 3.0 mph 9.0 mph 93 % 0.00 in
05:09 64.0 °F 62.1 °F 29.89 in NW 5.0 mph 9.0 mph 93 % 0.00 in
05:14 63.9 °F 62.1 °F 29.90 in NW 2.0 mph 9.0 mph 94 % 0.00 in
05:19 63.9 °F 62.1 °F 29.90 in NNW 2.0 mph 9.0 mph 94 % 0.00 in
05:24 63.7 °F 61.9 °F 29.90 in WNW 2.0 mph 9.0 mph 94 % 0.00 in
05:29 63.7 °F 62.2 °F 29.90 in NNW 2.0 mph 7.0 mph 95 % 0.00 in
05:34 63.7 °F 62.2 °F 29.89 in NW 2.0 mph 6.0 mph 95 % 0.00 in
05:39 63.5 °F 62.1 °F 29.90 in NW 1.0 mph 8.0 mph 95 % 0.00 in
05:44 63.3 °F 61.9 °F 29.90 in WNW 5.0 mph 8.0 mph 95 % 0.00 in
05:49 63.3 °F 61.9 °F 29.90 in Calm   10.0 mph 95 % 0.00 in
05:54 63.3 °F 61.9 °F 29.90 in NNE 6.0 mph 10.0 mph 95 % 0.00 in
06:00 63.3 °F 61.9 °F 29.91 in NW 2.0 mph 10.0 mph 95 % 0.00 in
06:05 63.3 °F 62.2 °F 29.92 in Calm   8.0 mph 96 % 0.00 in
06:10 63.3 °F 62.2 °F 29.93 in NW 1.0 mph 8.0 mph 96 % 0.13 in
06:15 63.0 °F 61.9 °F 29.94 in NW 10.0 mph 10.0 mph 96 % 0.17 in
06:20 62.4 °F 61.0 °F 29.95 in SSE 3.0 mph 15.0 mph 95 % 0.17 in
06:25 61.3 °F 59.9 °F 29.97 in NNW 6.0 mph 19.0 mph 95 % 0.17 in
06:30 60.6 °F 59.5 °F 29.97 in ENE 1.0 mph 19.0 mph 96 % 0.17 in
06:35 60.6 °F 59.5 °F 29.98 in WSW 7.0 mph 19.0 mph 96 % 0.28 in
06:40 60.3 °F 59.2 °F 29.99 in WNW 7.0 mph 16.0 mph 96 % 0.65 in
06:45 60.3 °F 59.4 °F 29.98 in WNW 5.0 mph 16.0 mph 97 % 0.86 in
06:50 60.3 °F 59.4 °F 29.97 in ENE 5.0 mph 15.0 mph 97 % 0.91 in
06:55 60.3 °F 59.7 °F 29.97 in NW 4.0 mph 15.0 mph 98 % 0.95 in
07:00 60.4 °F 59.9 °F 29.98 in NNW 2.0 mph 11.0 mph 98 % 0.94 in
07:05 60.3 °F 59.7 °F 29.98 in NE 1.0 mph 11.0 mph 98 % 0.82 in
07:07 60.3 °F 59.7 °F 29.98 in NW 2.0 mph 11.0 mph 98 % 0.82 in
07:12 60.4 °F 59.9 °F 29.98 in NW 4.0 mph 7.0 mph 98 % 0.81 in
07:17 60.4 °F 59.9 °F 29.97 in NW 4.0 mph 7.0 mph 98 % 0.83 in
07:22 60.4 °F 59.9 °F 29.98 in NNE 3.0 mph 10.0 mph 98 % 0.84 in
07:27 60.4 °F 59.9 °F 29.98 in West 3.0 mph 10.0 mph 98 % 0.86 in
07:32 60.4 °F 59.9 °F 29.99 in North 4.0 mph 10.0 mph 98 % 0.87 in
07:37 60.4 °F 59.9 °F 29.99 in NE 2.0 mph 9.0 mph 98 % 0.77 in
07:43 60.4 °F 59.9 °F 29.99 in WNW 2.0 mph 7.0 mph 98 % 0.41 in
07:48 60.4 °F 59.9 °F 29.99 in North 2.0 mph 7.0 mph 98 % 0.24 in
07:53 60.4 °F 60.1 °F 29.99 in North 1.0 mph 7.0 mph 99 % 0.21 in
07:58 60.4 °F 60.1 °F 30.01 in Calm   6.0 mph 99 % 0.20 in
08:03 60.4 °F 60.1 °F 30.01 in Calm   5.0 mph 99 % 0.21 in
08:08 60.6 °F 60.3 °F 30.00 in Calm   5.0 mph 99 % 0.24 in
08:13 60.6 °F 60.3 °F 30.00 in Calm   4.0 mph 99 % 0.27 in
08:18 60.6 °F 60.3 °F 30.00 in NNE 1.0 mph 4.0 mph 99 % 0.26 in
08:23 60.6 °F 60.3 °F 30.01 in NNW 1.0 mph 4.0 mph 99 % 0.27 in
08:28 60.4 °F 60.1 °F 30.01 in NNW 1.0 mph 4.0 mph 99 % 0.26 in
08:33 60.6 °F 60.3 °F 30.02 in Calm   4.0 mph 99 % 0.27 in
08:38 60.6 °F 60.3 °F 30.02 in Calm   2.0 mph 99 % 0.28 in
08:43 60.6 °F 60.3 °F 30.02 in Calm   2.0 mph 99 % 0.27 in
08:48 60.8 °F 60.4 °F 30.01 in NNW 1.0 mph 2.0 mph 99 % 0.28 in
08:53 60.8 °F 60.4 °F 30.01 in NNW 1.0 mph 2.0 mph 99 % 0.29 in
08:58 60.8 °F 60.4 °F 30.01 in North 1.0 mph 4.0 mph 99 % 0.29 in
09:03 60.6 °F 60.3 °F 30.01 in NW 3.0 mph 5.0 mph 99 % 0.29 in
09:08 60.8 °F 60.4 °F 30.00 in NNE 4.0 mph 5.0 mph 99 % 0.29 in
09:13 60.8 °F 60.4 °F 29.99 in NW 2.0 mph 7.0 mph 99 % 0.26 in
09:18 60.8 °F 60.4 °F 30.00 in Calm   7.0 mph 99 % 0.27 in
09:23 60.8 °F 60.4 °F 30.01 in Calm   7.0 mph 99 % 0.27 in
09:28 61.0 °F 60.6 °F 30.02 in Calm   6.0 mph 99 % 0.27 in
09:33 61.0 °F 60.6 °F 30.02 in Calm   6.0 mph 99 % 0.25 in
09:38 61.0 °F 60.6 °F 30.03 in Calm   2.0 mph 99 % 0.25 in
09:40 61.2 °F 60.8 °F 30.02 in Calm   2.0 mph 99 % 0.25 in
09:45 61.2 °F 60.8 °F 30.01 in NNW 2.0 mph 5.0 mph 99 % 0.23 in
09:50 61.2 °F 60.8 °F 30.01 in NNW 1.0 mph 5.0 mph 99 % 0.21 in
09:55 61.2 °F 60.8 °F 30.03 in ENE 1.0 mph 5.0 mph 99 % 0.19 in
10:00 61.2 °F 60.8 °F 30.03 in Calm   5.0 mph 99 % 0.18 in
10:05 61.2 °F 60.8 °F 30.03 in Calm   4.0 mph 99 % 0.16 in
10:10 61.3 °F 61.0 °F 30.03 in Calm   2.0 mph 99 % 0.15 in
10:16 61.3 °F 61.0 °F 30.02 in North 3.0 mph 3.0 mph 99 % 0.14 in
10:21 61.3 °F 61.0 °F 30.02 in NE 1.0 mph 4.0 mph 99 % 0.14 in
10:26 61.3 °F 61.0 °F 30.02 in Calm   4.0 mph 99 % 0.14 in
10:31 61.3 °F 61.0 °F 30.02 in Calm   4.0 mph 99 % 0.14 in
10:36 61.3 °F 61.0 °F 30.02 in NNW 1.0 mph 4.0 mph 99 % 0.14 in
10:41 61.3 °F 61.0 °F 30.02 in North 1.0 mph 4.0 mph 99 % 0.13 in
10:46 61.3 °F 61.0 °F 30.02 in Calm   4.0 mph 99 % 0.13 in
10:51 61.3 °F 61.0 °F 30.02 in NW 1.0 mph 5.0 mph 99 % 0.13 in
10:56 61.3 °F 61.0 °F 30.02 in North 1.0 mph 5.0 mph 99 % 0.12 in
11:01 61.3 °F 61.0 °F 30.02 in NNE 2.0 mph 6.0 mph 99 % 0.12 in
11:06 61.3 °F 61.0 °F 30.01 in NE 3.0 mph 6.0 mph 99 % 0.12 in
11:11 61.2 °F 60.8 °F 30.00 in NNW 2.0 mph 6.0 mph 99 % 0.11 in
11:16 61.2 °F 60.8 °F 30.01 in North 3.0 mph 7.0 mph 99 % 0.11 in
11:21 61.2 °F 60.8 °F 30.01 in Calm   7.0 mph 99 % 0.09 in
11:26 61.3 °F 61.0 °F 30.01 in NNW 3.0 mph 7.0 mph 99 % 0.09 in
11:31 61.3 °F 61.0 °F 29.99 in NE 2.0 mph 7.0 mph 99 % 0.09 in
11:36 61.2 °F 60.8 °F 29.99 in NNW 3.0 mph 8.0 mph 99 % 0.08 in
11:41 61.3 °F 61.0 °F 29.98 in NNE 3.0 mph 8.0 mph 99 % 0.08 in
11:46 61.5 °F 61.2 °F 29.97 in Calm   8.0 mph 99 % 0.07 in
11:51 61.5 °F 61.2 °F 29.98 in NNW 2.0 mph 5.0 mph 99 % 0.06 in
11:56 61.3 °F 61.0 °F 29.97 in NNE 4.0 mph 7.0 mph 99 % 0.07 in
12:02 61.2 °F 60.8 °F 29.98 in North 2.0 mph 7.0 mph 99 % 0.06 in
12:07 61.2 °F 60.8 °F 29.98 in North 2.0 mph 7.0 mph 99 % 0.05 in
12:12 61.2 °F 60.8 °F 29.98 in NE 1.0 mph 7.0 mph 99 % 0.05 in
12:17 61.0 °F 60.6 °F 29.96 in North 3.0 mph 10.0 mph 99 % 0.04 in
12:22 61.0 °F 60.6 °F 29.96 in ENE 3.0 mph 10.0 mph 99 % 0.04 in
12:27 61.0 °F 60.6 °F 29.96 in Calm   10.0 mph 99 % 0.04 in
12:32 61.0 °F 60.6 °F 29.95 in East 2.0 mph 8.0 mph 99 % 0.03 in
12:37 61.0 °F 60.6 °F 29.96 in NNW 2.0 mph 8.0 mph 99 % 0.03 in
12:42 61.0 °F 60.6 °F 29.95 in East 3.0 mph 8.0 mph 99 % 0.03 in
12:47 61.0 °F 60.6 °F 29.95 in ENE 2.0 mph 9.0 mph 99 % 0.04 in
12:52 61.0 °F 60.6 °F 29.95 in North 2.0 mph 9.0 mph 99 % 0.04 in
12:57 61.0 °F 60.6 °F 29.96 in North 1.0 mph 9.0 mph 99 % 0.04 in
13:02 61.0 °F 60.6 °F 29.96 in ESE 8.0 mph 8.0 mph 99 % 0.04 in
13:07 60.8 °F 60.4 °F 29.96 in NNW 2.0 mph 10.0 mph 99 % 0.04 in
13:12 60.8 °F 60.4 °F 29.95 in NE 2.0 mph 10.0 mph 99 % 0.04 in
13:17 60.6 °F 60.3 °F 29.94 in ENE 1.0 mph 10.0 mph 99 % 0.04 in
13:22 60.6 °F 60.3 °F 29.94 in Calm   8.0 mph 99 % 0.04 in
13:27 60.8 °F 60.4 °F 29.93 in Calm   10.0 mph 99 % 0.04 in
13:32 60.8 °F 60.4 °F 29.93 in ENE 2.0 mph 10.0 mph 99 % 0.05 in
13:37 60.8 °F 60.4 °F 29.92 in East 1.0 mph 10.0 mph 99 % 0.06 in
13:42 61.0 °F 60.6 °F 29.92 in ENE 2.0 mph 8.0 mph 99 % 0.07 in
13:44 61.0 °F 60.6 °F 29.92 in NE 7.0 mph 8.0 mph 99 % 0.07 in
13:49 61.0 °F 60.6 °F 29.92 in East 4.0 mph 8.0 mph 99 % 0.06 in
13:54 60.8 °F 60.4 °F 29.92 in ESE 1.0 mph 8.0 mph 99 % 0.07 in
13:59 60.8 °F 60.4 °F 29.93 in East 4.0 mph 7.0 mph 99 % 0.06 in
14:04 60.6 °F 60.3 °F 29.93 in SSW 4.0 mph 7.0 mph 99 % 0.06 in
14:09 60.6 °F 60.3 °F 29.93 in South 3.0 mph 7.0 mph 99 % 0.06 in
14:14 60.4 °F 60.1 °F 29.93 in ENE 4.0 mph 6.0 mph 99 % 0.06 in
14:19 60.4 °F 60.1 °F 29.91 in East 2.0 mph 6.0 mph 99 % 0.07 in
14:24 60.4 °F 60.1 °F 29.91 in ENE 4.0 mph 6.0 mph 99 % 0.06 in
14:29 60.4 °F 60.1 °F 29.90 in East 5.0 mph 7.0 mph 99 % 0.07 in
14:34 60.4 °F 60.1 °F 29.90 in Calm   8.0 mph 99 % 0.06 in
14:39 60.4 °F 60.1 °F 29.90 in NNW 3.0 mph 12.0 mph 99 % 0.06 in
14:44 60.4 °F 60.1 °F 29.89 in North 2.0 mph 12.0 mph 99 % 0.04 in
14:49 60.4 °F 60.1 °F 29.89 in NE 5.0 mph 12.0 mph 99 % 0.04 in
14:55 60.4 °F 60.1 °F 29.89 in ESE 3.0 mph 9.0 mph 99 % 0.03 in
15:00 60.4 °F 60.1 °F 29.89 in ENE 3.0 mph 10.0 mph 99 % 0.03 in
15:05 60.3 °F 59.9 °F 29.89 in ESE 5.0 mph 14.0 mph 99 % 0.04 in
15:10 60.3 °F 59.9 °F 29.88 in ESE 3.0 mph 14.0 mph 99 % 0.04 in
15:15 60.4 °F 60.1 °F 29.91 in NW 3.0 mph 14.0 mph 99 % 0.03 in
15:20 60.4 °F 60.1 °F 29.92 in SSE 1.0 mph 11.0 mph 99 % 0.04 in
15:25 60.4 °F 60.1 °F 29.91 in NW 1.0 mph 11.0 mph 99 % 0.03 in
15:30 60.6 °F 60.3 °F 29.91 in Calm   11.0 mph 99 % 0.03 in
15:35 60.4 °F 60.1 °F 29.92 in WNW 3.0 mph 3.0 mph 99 % 0.02 in
15:40 60.4 °F 60.1 °F 29.92 in WNW 1.0 mph 6.0 mph 99 % 0.02 in
15:43 60.4 °F 60.1 °F 29.94 in Calm   6.0 mph 99 % 0.02 in
15:48 60.6 °F 60.3 °F 29.94 in Calm   6.0 mph 99 % 0.02 in
15:53 60.4 °F 60.1 °F 29.93 in Calm   6.0 mph 99 % 0.02 in
15:58 60.4 °F 60.1 °F 29.94 in WSW 1.0 mph 6.0 mph 99 % 0.02 in
16:03 60.6 °F 60.3 °F 29.95 in WSW 2.0 mph 2.0 mph 99 % 0.01 in
16:08 60.6 °F 60.3 °F 29.93 in Calm   3.0 mph 99 % 0.01 in
16:13 60.6 °F 60.3 °F 29.91 in ENE 3.0 mph 4.0 mph 99 % 0.02 in
16:18 60.6 °F 60.3 °F 29.91 in Calm   4.0 mph 99 % 0.01 in
16:23 60.6 °F 60.3 °F 29.93 in Calm   4.0 mph 99 % 0.01 in
16:28 60.6 °F 60.3 °F 29.96 in Calm   4.0 mph 99 % 0.01 in
16:33 60.6 °F 60.3 °F 29.93 in East 1.0 mph 5.0 mph 99 % 0.01 in
16:38 60.8 °F 60.4 °F 29.94 in South 1.0 mph 5.0 mph 99 % 0.01 in
16:43 60.6 °F 60.3 °F 29.95 in South 1.0 mph 5.0 mph 99 % 0.01 in
16:48 60.6 °F 60.3 °F 29.96 in Calm   4.0 mph 99 % 0.01 in
16:53 60.6 °F 60.3 °F 29.94 in Calm   4.0 mph 99 % 0.01 in
16:58 60.8 °F 60.4 °F 29.94 in Calm   4.0 mph 99 % 0.01 in
17:03 60.6 °F 60.3 °F 29.92 in North 1.0 mph 4.0 mph 99 % 0.01 in
17:08 60.8 °F 60.4 °F 29.92 in East 1.0 mph 2.0 mph 99 % 0.01 in
17:13 61.0 °F 60.6 °F 29.92 in Calm   2.0 mph 99 % 0.00 in
17:18 61.0 °F 60.6 °F 29.91 in Calm   2.0 mph 99 % 0.00 in
17:23 61.0 °F 60.6 °F 29.90 in Calm   2.0 mph 99 % 0.00 in
17:29 61.0 °F 60.6 °F 29.89 in Calm   2.0 mph 99 % 0.00 in
17:34 61.0 °F 60.6 °F 29.92 in NW 1.0 mph 4.0 mph 99 % 0.00 in
17:39 61.0 °F 60.6 °F 29.94 in Calm   4.0 mph 99 % 0.00 in
17:44 61.0 °F 60.6 °F 29.94 in Calm   4.0 mph 99 % 0.00 in
17:49 61.0 °F 60.6 °F 29.93 in Calm   2.0 mph 99 % 0.00 in
17:54 61.2 °F 60.8 °F 29.93 in WSW 1.0 mph 2.0 mph 99 % 0.00 in
17:59 61.0 °F 60.6 °F 29.93 in NW 1.0 mph 1.0 mph 99 % 0.00 in
18:04 61.0 °F 60.6 °F 29.92 in Calm   1.0 mph 99 % 0.00 in
18:09 61.0 °F 60.6 °F 29.93 in WNW 1.0 mph 2.0 mph 99 % 0.00 in
18:14 61.0 °F 60.6 °F 29.95 in Calm   2.0 mph 99 % 0.00 in
18:19 61.0 °F 60.6 °F 29.97 in SW 2.0 mph 2.0 mph 99 % 0.00 in
18:24 61.0 °F 60.6 °F 29.97 in South 3.0 mph 4.0 mph 99 % 0.00 in
18:29 61.2 °F 60.8 °F 29.97 in Calm   4.0 mph 99 % 0.00 in
18:34 61.2 °F 60.8 °F 29.95 in Calm   4.0 mph 99 % 0.00 in
18:39 61.0 °F 60.6 °F 29.94 in Calm   3.0 mph 99 % 0.00 in
18:40 61.0 °F 60.6 °F 29.94 in Calm   3.0 mph 99 % 0.00 in
18:45 61.0 °F 60.6 °F 29.93 in Calm   1.0 mph 99 % 0.00 in
18:50 60.8 °F 60.4 °F 29.93 in Calm   1.0 mph 99 % 0.00 in
18:56 60.6 °F 60.3 °F 29.96 in South 1.0 mph 1.0 mph 99 % 0.00 in
19:01 60.6 °F 60.3 °F 29.97 in Calm   2.0 mph 99 % 0.00 in
19:06 60.6 °F 60.3 °F 29.97 in Calm   2.0 mph 99 % 0.00 in
19:11 60.6 °F 60.3 °F 29.96 in Calm   2.0 mph 99 % 0.00 in
19:16 60.6 °F 60.3 °F 29.96 in Calm   1.0 mph 99 % 0.00 in
19:21 60.6 °F 60.3 °F 29.97 in Calm   1.0 mph 99 % 0.00 in
19:26 60.6 °F 60.3 °F 29.96 in Calm   1.0 mph 99 % 0.00 in
19:31 60.6 °F 60.3 °F 29.96 in Calm   1.0 mph 99 % 0.00 in
19:36 60.6 °F 60.3 °F 29.97 in Calm   1.0 mph 99 % 0.00 in
19:41 60.6 °F 60.3 °F 29.97 in Calm     99 % 0.00 in
19:46 60.6 °F 60.3 °F 29.98 in Calm     99 % 0.00 in
19:51 60.4 °F 60.1 °F 29.98 in Calm     99 % 0.00 in
19:56 60.4 °F 60.1 °F 29.98 in Calm     99 % 0.00 in
20:01 60.4 °F 60.1 °F 29.98 in Calm   1.0 mph 99 % 0.00 in
20:06 60.4 °F 60.1 °F 29.97 in Calm   1.0 mph 99 % 0.00 in
20:11 60.6 °F 60.6 °F 29.95 in Calm   1.0 mph 100 % 0.00 in
20:16 60.6 °F 60.6 °F 29.96 in Calm   1.0 mph 100 % 0.00 in
20:21 60.6 °F 60.3 °F 29.97 in Calm   1.0 mph 99 % 0.00 in
20:26 60.6 °F 60.6 °F 29.97 in Calm   1.0 mph 100 % 0.00 in
20:31 60.8 °F 60.8 °F 29.98 in Calm   1.0 mph 100 % 0.00 in
20:37 60.8 °F 60.4 °F 29.98 in SSW 1.0 mph 2.0 mph 99 % 0.00 in
20:42 60.6 °F 60.3 °F 29.98 in Calm   2.0 mph 99 % 0.00 in
20:47 60.4 °F 60.1 °F 29.97 in Calm   2.0 mph 99 % 0.00 in
20:52 60.4 °F 60.1 °F 29.97 in Calm   1.0 mph 99 % 0.00 in
20:57 60.4 °F 60.1 °F 29.98 in Calm   1.0 mph 99 % 0.00 in
21:02 60.3 °F 59.9 °F 29.98 in Calm   1.0 mph 99 % 0.00 in
21:07 60.3 °F 59.9 °F 29.98 in ESE 2.0 mph 2.0 mph 99 % 0.00 in
21:12 60.3 °F 60.3 °F 29.99 in Calm   2.0 mph 100 % 0.00 in
21:17 60.4 °F 60.4 °F 29.98 in Calm   2.0 mph 100 % 0.00 in
21:22 60.4 °F 60.4 °F 29.98 in ESE 1.0 mph 2.0 mph 100 % 0.00 in
21:27 60.4 °F 60.4 °F 29.98 in Calm   2.0 mph 100 % 0.00 in
21:32 60.4 °F 60.4 °F 29.98 in Calm   2.0 mph 100 % 0.00 in
21:37 60.4 °F 60.4 °F 29.98 in SSE 1.0 mph 2.0 mph 100 % 0.00 in
21:42 60.4 °F 60.4 °F 29.98 in SE 1.0 mph 2.0 mph 100 % 0.00 in
21:47 60.3 °F 60.3 °F 29.98 in SE 1.0 mph 2.0 mph 100 % 0.00 in
21:52 60.3 °F 59.9 °F 29.98 in SSE 1.0 mph 2.0 mph 99 % 0.00 in
21:57 60.1 °F 59.7 °F 29.98 in ESE 1.0 mph 2.0 mph 99 % 0.00 in
22:02 59.9 °F 59.5 °F 29.98 in Calm   2.0 mph 99 % 0.00 in
22:07 59.7 °F 59.4 °F 29.97 in Calm   2.0 mph 99 % 0.00 in
22:12 59.7 °F 59.4 °F 29.97 in Calm   2.0 mph 99 % 0.00 in
22:17 59.7 °F 59.4 °F 29.97 in ESE 2.0 mph 2.0 mph 99 % 0.00 in
22:22 59.7 °F 59.7 °F 29.97 in SE 1.0 mph 3.0 mph 100 % 0.00 in
22:27 59.7 °F 59.7 °F 29.97 in SE 3.0 mph 3.0 mph 100 % 0.00 in
22:32 59.9 °F 59.9 °F 29.98 in SE 1.0 mph 5.0 mph 100 % 0.00 in
22:37 59.9 °F 59.9 °F 29.98 in ESE 3.0 mph 5.0 mph 100 % 0.00 in
22:42 59.9 °F 59.9 °F 29.98 in SSE 3.0 mph 5.0 mph 100 % 0.00 in
22:47 59.7 °F 59.7 °F 29.98 in SSE 2.0 mph 4.0 mph 100 % 0.00 in
22:52 59.7 °F 59.7 °F 29.98 in SE 2.0 mph 4.0 mph 100 % 0.00 in
22:57 59.7 °F 59.7 °F 29.98 in SSE 1.0 mph 4.0 mph 100 % 0.00 in
23:02 59.7 °F 59.7 °F 29.97 in SE 3.0 mph 4.0 mph 100 % 0.00 in
23:07 59.5 °F 59.5 °F 29.97 in SSE 1.0 mph 4.0 mph 100 % 0.00 in
23:12 59.4 °F 59.0 °F 29.97 in SSE 2.0 mph 4.0 mph 99 % 0.00 in
23:17 59.4 °F 59.4 °F 29.97 in SSE 2.0 mph 3.0 mph 100 % 0.00 in
23:22 59.4 °F 59.4 °F 29.97 in Calm   3.0 mph 100 % 0.00 in
23:27 59.2 °F 59.2 °F 29.97 in SE 2.0 mph 3.0 mph 100 % 0.00 in
23:32 59.2 °F 59.2 °F 29.97 in SSE 1.0 mph 3.0 mph 100 % 0.00 in
23:38 59.2 °F 59.2 °F 29.97 in Calm   3.0 mph 100 % 0.00 in
23:43 59.2 °F 59.2 °F 29.96 in SSE 2.0 mph 3.0 mph 100 % 0.00 in
23:48 59.0 °F 59.0 °F 29.97 in ESE 1.0 mph 3.0 mph 100 % 0.00 in
23:53 59.0 °F 59.0 °F 29.96 in SSE 2.0 mph 3.0 mph 100 % 0.00 in
23:54 59.0 °F 59.0 °F 29.96 in ESE 5.0 mph 5.0 mph 100 % 0.00 in
23:59 59.2 °F 59.2 °F 29.96 in SSE 2.0 mph 5.0 mph 100 % 0.00 in
Spring, Texas: Villages of Bridgestone
Compliments of Weather Underground - 3.25 mb

Script developed by  Jim McMurry - jmcmurry@mwt.net Adapted for the template by  Wim van der Kuil - Leuven-Template.eu

You find our weather info also at:

UK Metoffice

WeatherCloud

Weather Underground

Mid-South Weather Network

AWEKAS

Citizen Weather Observer Program (CWOP)

HAMweather, WeatherForYou, PWS Weather

Equipment we use:

Weather-station
Davis Vantage Vue

Weather-program
Meteohub

Weather-server
Debian 7.9 x86 (Guest)

Provider
DreamHost

Davis Vantage Vue

Meteohub

Debian 7.9 x86 (Guest)

DreamHost